Overton, Nevada Weather observations

Data are for observation ending at time listed.
 Day   Time    Ave.   Ave.  Ave.  Vector   Max.   Stn.    Total    Solar   Ave.  
  of    of     Air    Rel.  Wind   Wind    Wind   Baro.  Precip.   Rad.    Soil  
Year   Day     Temp.  Hum.  Speed  Dir.    Gust   Pres.                    Temp. 
2026   (PST)    F      %     mph   deg.    mph     mb.     in.     W/m2     F   
------------------------------------------------------------------------------
 123    1:10   62.7    14    2.0   277      3.9   962.3    0.00       0    69.2
 123    1:20   62.8    14    1.7   288      4.2   962.3    0.00       0    68.8
 123    1:30   62.2    14    1.4   283      3.1   962.2    0.00       0    68.5
 123    1:40   60.9    15    2.0   278      4.9   962.3    0.00       0    67.6
 123    1:50   59.8    16    2.3   301      4.2   962.3    0.00       0    67.1
 123    2:00   59.5    16    3.9   302      5.3   962.2    0.00       0    66.9
 123    2:10   60.7    14    2.8   290      5.6   962.2    0.00       0    67.3
 123    2:20   60.5    15    4.1   300      6.9   962.2    0.00       0    66.9
 123    2:30   60.6    14    4.8   301      6.5   962.2    0.00       0    66.7
 123    2:40   60.6    14    3.8   297      6.1   962.2    0.00       0    66.5
 123    2:50   61.0    14    2.1   275      4.1   962.2    0.00       0    66.8
 123    3:00   60.6    14    2.8   298      4.5   962.2    0.00       0    66.3
 123    3:10   61.2    14    3.2   293      5.3   962.2    0.00       0    66.4
 123    3:20   61.8    14    1.9   246      3.9   962.2    0.00       0    66.7
 123    3:30   62.1    13    2.4   250      4.5   962.2    0.00       0    66.7
 123    3:40   62.1    14    1.0   256      2.4   962.3    0.00       0    66.1
 123    3:50   60.3    16    0.1   321      0.7   962.3    0.00       0    65.3
 123    4:00   59.6    15    0.8   269      4.2   962.2    0.00       0    65.4
 123    4:10   60.5    14    1.4   265      4.2   962.1    0.00       0    65.4
 123    4:20   58.5    16    0.6   258      3.2   962.1    0.00       0    64.4
 123    4:30   60.1    13    1.9   259      4.0   962.2    0.00       0    65.4
 123    4:40   60.7    13    0.7   273      2.7   962.2    0.00       2    64.9
 123    4:50   60.8    13    0.6   268      2.6   962.3    0.00       4    65.2
 123    5:00   59.4    16    0.0    26      0.5   962.4    0.00      10    64.6
 123    5:10   58.4    20    0.7    34      2.8   962.6    0.00      25    64.4
 123    5:20   57.0    22    0.6    17      2.3   962.6    0.00      43    65.4
 123    5:30   59.3    18    0.0     0      0.0   962.8    0.00      99    70.2
 123    5:40   62.3    15    0.0   332      0.3   962.9    0.00     131    71.3
 123    5:50   62.2    16    1.5   308      2.7   963.2    0.00     163    72.7
 123    6:00   62.4    14    3.2   306      4.8   963.4    0.00     197    74.1
 123    6:10   64.0    13    3.1   300      6.4   963.7    0.00     232    76.0
 123    6:20   65.4    13    2.2   294      5.4   963.8    0.00     268    76.2
 123    6:30   66.5    13    3.3   305      5.9   964.0    0.00     304    75.1
 123    6:40   67.2    12    2.9   310      4.6   964.2    0.00     340    78.2
 123    6:50   68.2    12    4.0   315      6.0   964.4    0.00     376    79.2
 123    7:00   69.1    12    5.2   310      6.9   964.5    0.00     411    81.3
 123    7:10   70.1    11    6.3   321      9.3   964.6    0.00     447    81.6
 123    7:20   70.5    11    6.7   314      9.4   964.6    0.00     483    83.5
 123    7:30   71.9    10    6.0   321      8.3   964.7    0.00     516    85.4
 123    7:40   73.3    10    5.5   336      8.3   964.7    0.00     548    86.7
 123    7:50   74.2    10    5.5   323      8.2   964.7    0.00     583    88.6
 123    8:00   74.9    10    5.4   324      7.5   964.8    0.00     610    89.6
 123    8:10   75.8    10    4.9   328      7.9   964.8    0.00     645    91.2
 123    8:20   77.1     9    5.8   331      9.0   964.8    0.00     676    92.1
 123    8:30   78.3     9    4.7   326      7.3   964.9    0.00     706    94.1
 123    8:40   79.6     8    4.1   337      7.3   964.9    0.00     734    95.9
 123    8:50   80.4     8    3.1   357      7.5   965.0    0.00     768    97.4
 123    9:00   81.4     8    2.4   356      6.9   965.1    0.00     805    98.9
 123    9:10   82.2     8    1.9   313      6.1   965.1    0.00     843    101.6
 123    9:20   83.0     8    2.2   330      7.0   965.2    0.00     873    103.3
 123    9:30   83.7     7    1.9   311      4.6   965.2    0.00     878    103.8
 123    9:40   84.5     8    0.9   288      3.8   965.2    0.00     921    107.2
 123    9:50   85.8     7    2.0   324      5.0   965.1    0.00     916    105.9
 123   10:00   85.7     7    2.2    13      6.3   964.9    0.00     714    103.9
 123   10:10   85.7     7    3.7   313      7.5   964.7    0.00     931    104.6
 123   10:20   86.3     7    1.3   351      5.0   964.5    0.00     943    105.5
 123   10:30   88.8     7    1.8   344      6.5   964.3    0.00     955    106.5
 123   10:40   88.6     7    3.7     4      7.5   964.2    0.00     961    103.7
 123   10:50   89.1     7    2.3     0      5.2   964.0    0.00     968    104.7
 123   11:00   89.2     7    2.3   269      5.6   963.8    0.00     976    106.1
 123   11:10   90.2     7    1.8    70      5.6   963.7    0.00    1014    106.4
 123   11:20   91.2     7    2.7    10      6.4   963.5    0.00    1018    106.3
 123   11:30   90.6     7    3.2   193      7.2   963.4    0.00     853    107.2
 123   11:40   91.1     8    2.5   142      8.2   963.2    0.00    1001    108.3
 123   11:50   91.6     8    3.9   150      8.2   963.0    0.00     978    109.7
 123   12:00   92.3     8    3.8   136      9.1   962.8    0.00     971    109.6
 123   12:10   91.7     8    3.8   188     12.3   962.6    0.00     971    109.4
 123   12:20   92.5     8    5.9   207     15.7   962.3    0.00     957    107.3
 123   12:30   92.3     8    6.1   201     14.0   962.1    0.00     949    106.5
 123   12:40   92.6     8    4.7   214     12.9   961.8    0.00     944    104.3
 123   12:50   93.0     9    5.7   192     12.9   961.6    0.00     959    104.0
 123   13:00   94.0     9    6.6   173     13.9   961.4    0.00     902    103.4
 123   13:10   93.5     9    7.3   184     15.9   961.3    0.00     874    103.9
 123   13:20   93.4     9    7.1   208     14.3   961.1    0.00     953    103.8
 123   13:30   93.5     9    6.2   198     15.5   960.9    0.00     564    103.3
 123   13:40   92.8     9    5.2   152     12.1   960.6    0.00     580    101.3
 123   13:50   93.3     9    7.7   185     17.4   960.4    0.00     463    101.1
 123   14:00   93.5     8    5.3   178     12.1   960.1    0.00     818    101.1
 123   14:10   94.6     8    8.9   218     16.9   959.9    0.00     829    101.3
 123   14:20   94.5     9    9.0   178     18.5   959.8    0.00     800    101.6
 123   14:30   94.2     9    7.2   201     12.4   959.7    0.00     714    101.3
 123   14:40   93.9     9    6.0   152     12.0   959.4    0.00     362    100.2
 123   14:50   93.9     9    7.8   179     16.2   959.3    0.00     616    100.7
 123   15:00   94.0    10    5.7   180     14.8   959.1    0.00     508    100.7
 123   15:10   94.4    10    8.3   179     16.0   959.0    0.00     320    100.7
 123   15:20   94.1    10    9.6   175     19.1   958.9    0.00     388    101.3
 123   15:30   93.9    10    9.8   191     18.9   958.7    0.00     598    101.6
 123   15:40   93.4    10   10.3   191     21.3   958.7    0.00     311    100.6
 123   15:50   94.0    10    9.7   189     21.9   958.6    0.00     486    100.4
 123   16:00   93.1    10   14.3   188     25.4   958.5    0.00     232    99.3
 123   16:10   92.4    10   11.2   177     21.4   958.4    0.00     208    98.6
 123   16:20   92.8     9   13.2   169     23.9   958.3    0.00     365    97.8
 123   16:30   92.8     9   12.0   176     25.0   958.3    0.00     350    97.4
 123   16:40   92.9     9   10.6   183     17.5   958.3    0.00     298    96.9
 123   16:50   92.6     9    9.8   185     19.3   958.2    0.00     193    96.3
 123   17:00   92.4     9    9.4   179     19.5   958.2    0.00      79    95.4
 123   17:10   91.4     9   10.1   179     17.8   958.2    0.00     128    94.7
 123   17:20   91.4     8   11.7   174     22.7   958.1    0.00     161    94.3
 123   17:30   90.8     8   10.3   168     19.4   958.0    0.00      61    93.4
 123   17:40   90.0     8   10.6   166     21.3   957.9    0.00      27    92.5
 123   17:50   89.8     9   10.5   163     18.1   957.7    0.00      29    92.0
 123   18:00   89.5     9    9.9   167     20.0   957.6    0.00      20    91.5
 123   18:10   89.2     9    8.6   159     16.9   957.6    0.00      15    90.9
 123   18:20   88.8     9    7.7   155     17.0   957.7    0.00      10    90.3
 123   18:30   88.5     9    8.4   163     14.2   957.7    0.00       5    89.8
 123   18:40   88.1     9    6.1   161     12.0   957.7    0.00       2    89.2
 123   18:50   88.0    10    8.4   160     15.6   957.7    0.00       0    88.9
 123   19:00   87.9    10    8.1   162     17.3   957.8    0.00       0    88.6
 123   19:10   87.7    10    7.8   161     15.1   957.9    0.00       0    88.2
 123   19:20   87.5    10    8.1   160     15.2   958.0    0.00       0    87.9
 123   19:30   87.2    10    6.7   155     16.4   958.1    0.00       0    87.5
 123   19:40   86.6    10    4.9   143     15.6   958.2    0.00       0    87.0
 123   19:50   86.0    11    4.7   146     10.0   958.2    0.00       0    86.5
 123   20:00   85.7    11    4.5   147     10.9   958.3    0.00       0    86.1
 123   20:10   85.6    11    5.5   150     11.7   958.4    0.00       0    85.9
 123   20:20   85.4    11    4.2   144      8.3   958.5    0.00       0    85.6
 123   20:30   84.2    12    3.4   128      8.4   958.5    0.00       0    84.9
 123   20:40   82.8    12    2.7   134      6.6   958.6    0.00       0    84.5
 123   20:50   83.8    12    3.5   133     11.2   958.6    0.00       0    84.4
 123   21:00   80.7    14    2.4   108      6.7   958.6    0.00       0    83.2
 123   21:10   79.4    16    0.7   122      2.8   958.5    0.00       0    82.5
 123   21:20   78.1    18    1.0   115      3.2   958.3    0.00       0    82.0
 123   21:30   78.3    18    1.6   129      4.6   958.2    0.00       0    81.9
 123   21:40   78.3    18    0.3   137      1.9   958.1    0.00       0    81.3
 123   21:50   77.3    19    0.2    98      2.3   958.1    0.00       0    80.6
 123   22:00   76.9    19    1.7   116      3.8   958.0    0.00       0    80.7
 123   22:10   74.7    21    1.1   344      2.3   958.0    0.00       0    79.2
 123   22:20   73.1    21    2.8   305      5.4   958.0    0.00       0    79.1
 123   22:30   72.2    22    2.6   325      5.3   958.0    0.00       0    78.4
 123   22:40   71.9    21    2.4   292      4.4   958.0    0.00       0    78.4
 123   22:50   73.3    20    2.5   287      4.8   958.1    0.00       0    78.6
 123   23:00   74.6    20    1.2   286      4.5   958.2    0.00       0    78.8
 123   23:10   74.7    20    1.6   299      4.1   958.2    0.00       0    78.4
 123   23:20   74.4    21    2.4   276      4.7   958.5    0.00       0    78.5
 123   23:30   74.8    21    1.9   299      3.2   958.7    0.00       0    78.7
 123   23:40   73.1    23    3.2   316      5.8   958.7    0.00       0    77.9
 123   23:50   72.5    24    3.1   328      5.5   958.7    0.00       0    77.3
 124    0:00   72.8    24    1.6   350      3.2   958.7    0.00       0    77.5
 124    0:10   72.6    24    2.4   293      4.4   958.7    0.00       0    77.2
 124    0:20   73.0    24    1.9   340      3.4   958.6    0.00       0    76.9
 124    0:30   72.3    25    2.4   311      3.9   958.7    0.00       0    76.5
 124    0:40   70.9    26    0.6   338      1.5   958.6    0.00       0    76.4
 124    0:50   69.3    28    0.9   349      2.1   958.6    0.00       0    75.2
 124    1:00   69.9    27    2.2   254      4.0   958.6    0.00       0    75.8

Return to Overton, Nevada graphs page.


Western Regional Climate Center,wrcc@dri.edu